Time;durP1;ratioP1;P1;durP2;ratioP2;P2;SDS_P1;SDS_P2;PMS_P1;PMS_P2;Temp;Humidity;BMP_temperature;BMP_pressure;BME280_temperature;BME280_humidity;BME280_pressure;Samples;Min_cycle;Max_cycle;Signal;HPM_P1;HPM_P2
2022/01/03 00:01:34;;;;;;;11.20;5.93;;;;;;;7.12;100.00;94898.06;5032601;28;20309;-62
2022/01/03 00:03:59;;;;;;;9.60;7.23;;;;;;;6.84;100.00;94887.34;5032406;28;20560;-59
2022/01/03 00:06:25;;;;;;;10.20;6.93;;;;;;;7.05;100.00;94898.56;5032607;28;20217;-63
2022/01/03 00:08:50;;;;;;;7.33;5.70;;;;;;;6.97;100.00;94901.59;5032519;28;20175;-62
2022/01/03 00:11:20;;;;;;;8.83;6.47;;;;;;;6.84;100.00;94882.31;5032577;28;20198;-59
2022/01/03 00:13:49;;;;;;;12.13;6.53;;;;;;;6.65;100.00;94883.53;5031598;28;20185;-58
2022/01/03 00:16:15;;;;;;;7.73;5.93;;;;;;;6.58;100.00;94872.22;5029661;28;20280;-63
2022/01/03 00:18:41;;;;;;;7.47;6.50;;;;;;;6.45;100.00;94868.06;5032130;28;20269;-60
2022/01/03 00:21:13;;;;;;;6.83;5.70;;;;;;;6.43;100.00;94859.78;5032130;28;20589;-63
2022/01/03 00:23:40;;;;;;;7.93;5.67;;;;;;;6.39;100.00;94855.81;5031133;28;20596;-62
2022/01/03 00:26:07;;;;;;;8.37;5.93;;;;;;;6.23;100.00;94848.44;5032135;28;20202;-59
2022/01/03 00:28:52;;;;;;;7.43;6.10;;;;;;;5.97;100.00;94841.75;5032226;28;20204;-63
2022/01/03 00:31:19;;;;;;;8.50;6.03;;;;;;;5.85;100.00;94845.06;5032430;28;20694;-63
2022/01/03 00:33:51;;;;;;;9.23;6.20;;;;;;;5.84;100.00;94833.31;5031885;28;20181;-59
2022/01/03 00:36:19;;;;;;;9.53;6.80;;;;;;;5.79;100.00;94825.22;5030741;28;20749;-62
2022/01/03 00:38:44;;;;;;;10.47;6.97;;;;;;;5.74;100.00;94832.25;5030326;28;20604;-62
2022/01/03 00:41:10;;;;;;;10.33;6.90;;;;;;;5.57;100.00;94835.03;5030426;28;20209;-62
2022/01/03 00:43:35;;;;;;;9.30;6.60;;;;;;;5.52;100.00;94834.50;5031866;28;20256;-63
2022/01/03 00:46:01;;;;;;;9.57;6.50;;;;;;;5.65;100.00;94840.41;5031866;28;20294;-62
2022/01/03 00:48:27;;;;;;;11.37;6.50;;;;;;;5.66;100.00;94844.53;5030435;28;20184;-62
2022/01/03 00:50:52;;;;;;;9.77;6.47;;;;;;;5.72;100.00;94851.72;5031792;28;20350;-63
2022/01/03 00:53:19;;;;;;;10.30;7.27;;;;;;;5.82;100.00;94858.63;5031598;28;20185;-62
2022/01/03 00:56:08;;;;;;;10.57;6.57;;;;;;;5.98;100.00;94855.97;5031713;28;20196;-62
2022/01/03 00:58:37;;;;;;;11.03;6.03;;;;;;;5.99;100.00;94857.59;5031525;28;20213;-62
2022/01/03 01:01:04;;;;;;;10.63;6.63;;;;;;;6.03;100.00;94848.09;5031599;28;20693;-62
2022/01/03 01:03:41;;;;;;;10.53;6.83;;;;;;;5.81;100.00;94838.56;5030150;28;20599;-63
2022/01/03 01:06:07;;;;;;;11.30;6.47;;;;;;;5.85;100.00;94840.00;5031757;28;20228;-61
2022/01/03 01:08:35;;;;;;;9.97;6.23;;;;;;;5.80;100.00;94816.75;5030056;28;20200;-61
2022/01/03 01:11:04;;;;;;;11.73;7.27;;;;;;;5.69;100.00;94816.63;5031549;28;20202;-59
2022/01/03 01:13:30;;;;;;;9.87;6.93;;;;;;;5.72;100.00;94803.81;5030116;28;20179;-63
2022/01/03 01:15:55;;;;;;;10.20;7.43;;;;;;;5.95;100.00;94808.25;5029993;28;20216;-59
2022/01/03 01:18:24;;;;;;;9.23;6.60;;;;;;;5.85;100.00;94797.13;5031273;28;20184;-59
2022/01/03 01:20:49;;;;;;;14.93;6.80;;;;;;;5.99;100.00;94789.47;5029901;28;20222;-62
2022/01/03 01:23:15;;;;;;;12.50;6.57;;;;;;;5.99;100.00;94793.69;5031453;28;20243;-63
2022/01/03 01:28:08;;;;;;;8.70;7.03;;;;;;;6.00;100.00;94807.94;5031295;28;20676;-62
2022/01/03 01:30:35;;;;;;;9.23;6.53;;;;;;;5.99;100.00;94808.84;5035079;28;20290;-58
2022/01/03 01:33:06;;;;;;;8.93;7.10;;;;;;;6.19;100.00;94813.41;5035511;28;20182;-59
2022/01/03 01:35:45;;;;;;;9.50;5.80;;;;;;;6.31;100.00;94812.59;5035263;28;20182;-62
2022/01/03 01:38:18;;;;;;;12.70;8.77;;;;;;;6.44;100.00;94800.81;5035345;28;20537;-62
2022/01/03 01:40:49;;;;;;;13.63;8.20;;;;;;;6.45;100.00;94799.88;5033793;28;20213;-62
2022/01/03 01:43:19;;;;;;;14.20;8.20;;;;;;;6.42;100.00;94795.84;5035037;28;20605;-62
2022/01/03 01:45:48;;;;;;;10.77;7.33;;;;;;;6.41;100.00;94799.28;5035124;28;20307;-63
2022/01/03 01:48:15;;;;;;;10.23;7.67;;;;;;;6.50;100.00;94797.88;5034981;28;20188;-62
2022/01/03 01:50:41;;;;;;;11.33;8.40;;;;;;;6.51;100.00;94797.75;5033718;28;20240;-61
2022/01/03 01:53:08;;;;;;;12.77;8.50;;;;;;;6.63;100.00;94798.66;5035231;28;20630;-59
2022/01/03 01:55:38;;;;;;;14.17;7.83;;;;;;;6.68;100.00;94792.41;5034830;28;20205;-62
2022/01/03 01:58:29;;;;;;;13.13;8.80;;;;;;;6.66;100.00;94793.41;5033852;28;20181;-62
2022/01/03 02:01:04;;;;;;;11.27;8.53;;;;;;;6.87;100.00;94811.38;5035230;28;20573;-62
2022/01/03 02:03:37;;;;;;;11.70;7.67;;;;;;;6.71;100.00;94802.28;5033566;28;20604;-63
2022/01/03 02:06:20;;;;;;;9.80;7.37;;;;;;;6.59;100.00;94800.59;5034701;28;20644;-61
2022/01/03 02:09:04;;;;;;;14.17;7.23;;;;;;;6.44;100.00;94793.22;5034762;28;20220;-61
2022/01/03 02:11:47;;;;;;;10.77;7.27;;;;;;;6.18;100.00;94776.47;5035116;28;20772;-61
2022/01/03 02:14:13;;;;;;;13.70;8.90;;;;;;;6.25;100.00;94767.56;5034668;28;20596;-63
2022/01/03 02:16:39;;;;;;;13.33;8.30;;;;;;;6.26;100.00;94762.41;5034661;28;20267;-63
2022/01/03 02:19:05;;;;;;;13.13;9.00;;;;;;;6.25;100.00;94742.34;5034432;28;20666;-62
2022/01/03 02:21:31;;;;;;;14.27;9.40;;;;;;;6.36;100.00;94744.97;5034493;28;20223;-62
2022/01/03 02:23:57;;;;;;;9.87;7.60;;;;;;;6.50;100.00;94749.91;5034352;28;20173;-63
2022/01/03 02:26:22;;;;;;;13.63;8.60;;;;;;;6.38;100.00;94736.34;5034466;28;20209;-62
2022/01/03 02:28:48;;;;;;;13.90;9.40;;;;;;;6.47;100.00;94729.88;5034299;28;20174;-61
2022/01/03 02:31:17;;;;;;;13.87;9.13;;;;;;;6.45;100.00;94732.53;5034516;28;20205;-61
2022/01/03 02:33:45;;;;;;;14.47;8.53;;;;;;;6.43;100.00;94731.00;5034525;28;20178;-62
2022/01/03 02:36:11;;;;;;;12.70;8.57;;;;;;;6.55;100.00;94738.56;5033975;28;20286;-59
2022/01/03 02:38:37;;;;;;;14.97;8.80;;;;;;;6.53;100.00;94732.81;5034334;28;20268;-62
2022/01/03 02:41:02;;;;;;;13.50;8.77;;;;;;;6.37;100.00;94723.84;5026624;22;20246;-63
2022/01/03 02:43:28;;;;;;;14.23;8.80;;;;;;;6.33;100.00;94723.25;4972228;28;20273;-59
2022/01/03 02:45:54;;;;;;;13.03;8.57;;;;;;;6.35;100.00;94729.00;4972000;28;20571;-59
2022/01/03 02:48:23;;;;;;;11.17;8.50;;;;;;;6.44;100.00;94748.59;4971942;28;20191;-59
2022/01/03 02:50:48;;;;;;;12.87;8.90;;;;;;;6.56;100.00;94741.91;4971838;28;20211;-63
2022/01/03 02:53:15;;;;;;;13.20;8.60;;;;;;;6.47;100.00;94740.00;4972119;28;20184;-61
2022/01/03 02:55:41;;;;;;;14.17;8.40;;;;;;;6.27;100.00;94735.47;4970636;28;20579;-61
2022/01/03 02:58:07;;;;;;;13.93;8.87;;;;;;;6.35;100.00;94729.00;4971799;28;20191;-63
2022/01/03 03:00:36;;;;;;;11.07;7.97;;;;;;;6.13;100.00;94726.28;4971726;28;20184;-62
2022/01/03 03:03:03;;;;;;;12.93;7.93;;;;;;;6.22;100.00;94728.19;4971873;28;20191;-59
2022/01/03 03:05:29;;;;;;;11.90;8.13;;;;;;;6.11;100.00;94723.06;4970405;28;20195;-63
2022/01/03 03:07:54;;;;;;;13.27;7.97;;;;;;;6.22;100.00;94720.63;4971662;28;20240;-60
2022/01/03 03:10:23;;;;;;;12.93;7.90;;;;;;;6.29;100.00;94716.78;4971621;28;20184;-59
2022/01/03 03:12:49;;;;;;;13.67;8.40;;;;;;;6.32;100.00;94713.25;4971830;28;20195;-59
2022/01/03 03:15:16;;;;;;;13.17;7.73;;;;;;;6.32;100.00;94701.44;4971588;28;20567;-62
2022/01/03 03:17:43;;;;;;;13.50;8.63;;;;;;;6.42;100.00;94710.00;4972269;28;20187;-63
2022/01/03 03:20:29;;;;;;;10.67;7.87;;;;;;;6.51;100.00;94723.72;4971604;28;20255;-63
2022/01/03 03:22:56;;;;;;;10.40;7.40;;;;;;;6.49;100.00;94718.78;4971333;28;20318;-63
2022/01/03 03:25:33;;;;;;;12.70;7.60;;;;;;;6.67;100.00;94734.41;4971553;28;20270;-59
2022/01/03 03:28:02;;;;;;;11.60;8.13;;;;;;;6.57;100.00;94729.16;4971015;28;20343;-62
2022/01/03 03:30:31;;;;;;;10.90;8.03;;;;;;;6.54;100.00;94729.41;4971366;28;20183;-62
2022/01/03 03:33:01;;;;;;;12.00;8.03;;;;;;;6.53;100.00;94727.75;4971338;28;20191;-62
2022/01/03 03:35:27;;;;;;;11.97;8.80;;;;;;;6.48;100.00;94722.22;4971249;28;20188;-62
2022/01/03 03:37:52;;;;;;;11.23;7.67;;;;;;;6.46;100.00;94723.25;4971275;28;20517;-60
2022/01/03 03:40:18;;;;;;;11.47;7.60;;;;;;;6.52;100.00;94715.25;4969902;28;20187;-62
2022/01/03 03:42:43;;;;;;;12.30;8.20;;;;;;;6.58;100.00;94724.94;4970948;28;20216;-62
2022/01/03 03:45:10;;;;;;;11.40;8.33;;;;;;;6.61;100.00;94712.09;4971183;28;20569;-62
2022/01/03 03:47:36;;;;;;;12.60;8.13;;;;;;;6.51;100.00;94713.63;4969883;28;20222;-61
2022/01/03 03:50:04;;;;;;;14.40;8.10;;;;;;;6.46;100.00;94711.44;4971019;28;20563;-62
2022/01/03 03:52:29;;;;;;;14.07;8.23;;;;;;;6.36;100.00;94720.50;4970583;28;20222;-63
2022/01/03 03:54:55;;;;;;;10.63;7.30;;;;;;;6.53;100.00;94715.13;4971097;28;20525;-62
2022/01/03 03:57:20;;;;;;;12.87;8.50;;;;;;;6.32;100.00;94706.47;4971474;28;20821;-61
2022/01/03 03:59:45;;;;;;;12.60;8.47;;;;;;;6.49;100.00;94707.88;4971005;28;20190;-60
2022/01/03 04:02:11;;;;;;;11.60;8.20;;;;;;;6.35;100.00;94711.34;4969492;28;20546;-63
2022/01/03 04:04:36;;;;;;;10.63;7.73;;;;;;;6.28;100.00;94692.44;4971031;28;20183;-62
2022/01/03 04:07:03;;;;;;;10.70;7.67;;;;;;;6.38;100.00;94698.50;4971124;28;20206;-62
2022/01/03 04:09:28;;;;;;;14.90;8.87;;;;;;;6.44;100.00;94700.63;4970710;28;20188;-62
2022/01/03 04:11:54;;;;;;;11.40;8.10;;;;;;;6.40;100.00;94704.25;4971070;28;20563;-59
2022/01/03 04:14:19;;;;;;;10.83;7.63;;;;;;;6.28;100.00;94711.84;4970754;28;20206;-60
2022/01/03 04:16:45;;;;;;;12.67;8.23;;;;;;;6.34;100.00;94696.31;4969454;28;20309;-58
2022/01/03 04:19:10;;;;;;;13.20;8.33;;;;;;;6.18;100.00;94704.06;4970654;28;20733;-60
2022/01/03 04:21:37;;;;;;;13.17;7.40;;;;;;;6.22;100.00;94713.06;4969449;28;20231;-62
2022/01/03 04:24:04;;;;;;;13.07;8.33;;;;;;;6.27;100.00;94715.28;4970619;28;20181;-61
2022/01/03 04:26:30;;;;;;;13.53;9.23;;;;;;;6.34;100.00;94719.00;4969279;28;20210;-62
2022/01/03 04:28:56;;;;;;;11.67;7.70;;;;;;;6.44;100.00;94713.25;4969254;28;20594;-63
2022/01/03 04:31:21;;;;;;;13.17;8.17;;;;;;;6.37;100.00;94712.03;4970650;28;20257;-62
2022/01/03 04:33:47;;;;;;;10.00;7.97;;;;;;;6.42;100.00;94701.63;4970568;28;20606;-62
2022/01/03 04:36:13;;;;;;;14.97;8.10;;;;;;;6.29;100.00;94701.66;4970825;28;20211;-63
2022/01/03 04:38:39;;;;;;;13.97;8.77;;;;;;;6.29;100.00;94696.59;4970856;28;20481;-59
2022/01/03 04:41:04;;;;;;;11.27;8.33;;;;;;;6.15;100.00;94701.78;4970463;28;20231;-60
2022/01/03 04:43:30;;;;;;;12.43;8.30;;;;;;;6.31;100.00;94694.78;4970396;28;20583;-62
2022/01/03 04:45:56;;;;;;;13.40;8.53;;;;;;;6.21;100.00;94685.41;4970463;28;20211;-63
2022/01/03 04:48:22;;;;;;;13.53;8.20;;;;;;;6.36;100.00;94700.31;4968845;28;20657;-63
2022/01/03 04:50:49;;;;;;;29.17;8.33;;;;;;;6.29;100.00;94713.47;4970355;28;20235;-63
2022/01/03 04:53:14;;;;;;;12.83;8.03;;;;;;;6.33;100.00;94714.88;4970256;28;20221;-62
2022/01/03 04:55:40;;;;;;;11.77;8.40;;;;;;;6.28;100.00;94720.22;4968840;28;20234;-62
2022/01/03 04:58:05;;;;;;;12.27;7.93;;;;;;;6.50;100.00;94729.69;4970203;28;20600;-64
2022/01/03 05:00:31;;;;;;;12.97;8.60;;;;;;;6.40;100.00;94729.50;4968739;28;20276;-62
2022/01/03 05:02:56;;;;;;;13.73;8.63;;;;;;;6.35;100.00;94729.00;4970126;28;20274;-59
2022/01/03 05:05:22;;;;;;;15.70;8.27;;;;;;;6.41;100.00;94737.88;4970117;28;20187;-64
2022/01/03 05:07:48;;;;;;;15.30;9.23;;;;;;;6.53;100.00;94742.91;4969951;28;20283;-61
2022/01/03 05:10:13;;;;;;;12.07;8.23;;;;;;;6.41;100.00;94733.66;4969939;28;20182;-63
2022/01/03 05:12:39;;;;;;;15.50;8.83;;;;;;;6.31;100.00;94735.16;4970053;28;20226;-62
2022/01/03 05:15:05;;;;;;;16.33;8.43;;;;;;;6.42;100.00;94734.47;4970069;28;20187;-62
2022/01/03 05:17:31;;;;;;;13.43;9.23;;;;;;;6.32;100.00;94725.88;4968825;28;20287;-63
2022/01/03 05:19:58;;;;;;;14.30;7.90;;;;;;;6.05;100.00;94720.94;4970289;28;20248;-62
2022/01/03 05:22:24;;;;;;;11.30;8.00;;;;;;;6.11;100.00;94720.53;4970210;28;20641;-59
2022/01/03 05:24:49;;;;;;;13.20;8.50;;;;;;;6.18;100.00;94718.44;4969889;28;20184;-60
2022/01/03 05:27:14;;;;;;;11.07;7.80;;;;;;;6.18;100.00;94715.91;4970117;28;20212;-63
2022/01/03 05:29:40;;;;;;;11.47;8.60;;;;;;;6.17;100.00;94715.09;4969875;28;20206;-63
2022/01/03 05:32:06;;;;;;;11.23;7.70;;;;;;;6.04;100.00;94713.50;4970056;28;20216;-64
2022/01/03 05:34:39;;;;;;;13.63;8.23;;;;;;;6.17;100.00;94715.09;4969758;28;20202;-63
2022/01/03 05:37:05;;;;;;;11.93;8.20;;;;;;;6.11;100.00;94719.72;4970134;28;20204;-59
2022/01/03 05:39:31;;;;;;;14.93;8.00;;;;;;;6.15;100.00;94706.00;4969588;28;20191;-63
2022/01/03 05:41:56;;;;;;;13.40;8.43;;;;;;;6.34;100.00;94712.22;4969797;28;20594;-62
2022/01/03 05:44:22;;;;;;;13.83;8.20;;;;;;;6.24;100.00;94693.56;4969616;28;20195;-63
2022/01/03 05:46:47;;;;;;;12.17;8.37;;;;;;;6.09;100.00;94691.25;4968149;28;20213;-61
2022/01/03 05:49:13;;;;;;;13.27;8.47;;;;;;;6.06;100.00;94696.53;4969422;28;20183;-63
2022/01/03 05:51:39;;;;;;;13.47;7.80;;;;;;;6.04;100.00;94706.69;4969581;28;20215;-63
2022/01/03 05:54:04;;;;;;;12.57;7.97;;;;;;;6.23;100.00;94713.88;4969451;28;20184;-61
2022/01/03 05:56:31;;;;;;;12.47;7.50;;;;;;;6.32;100.00;94713.25;4968196;28;20212;-60
2022/01/03 05:58:56;;;;;;;13.47;7.63;;;;;;;6.56;100.00;94717.47;4969216;28;20673;-59
2022/01/03 06:01:23;;;;;;;9.37;6.70;;;;;;;6.51;100.00;94721.19;4969263;28;20540;-62
2022/01/03 06:03:58;;;;;;;10.87;7.57;;;;;;;6.58;100.00;94717.34;4968136;28;20729;-59
2022/01/03 06:06:53;;;;;;;9.00;6.90;;;;;;;6.58;100.00;94714.84;4969438;28;20206;-59
2022/01/03 06:09:09;;;;;;;8.63;6.80;;;;;;;6.55;100.00;94723.41;4969251;28;20202;-62
2022/01/03 06:11:35;;;;;;;11.17;6.83;;;;;;;6.40;100.00;94714.34;4951953;28;20203;-63
2022/01/03 06:14:01;;;;;;;11.83;6.97;;;;;;;6.42;100.00;94714.25;4969091;28;20182;-62
2022/01/03 06:16:26;;;;;;;10.90;6.80;;;;;;;6.29;100.00;94714.28;4972407;28;20263;-63
2022/01/03 06:18:52;;;;;;;12.47;6.90;;;;;;;6.47;100.00;94722.31;4972515;28;20233;-62
2022/01/03 06:21:17;;;;;;;10.23;6.50;;;;;;;6.54;100.00;94733.63;4972637;28;20306;-62
2022/01/03 06:23:44;;;;;;;10.80;6.70;;;;;;;6.61;100.00;94732.28;4972427;28;20189;-63
2022/01/03 06:26:09;;;;;;;12.73;7.17;;;;;;;6.60;100.00;94743.31;4972334;28;20209;-62
2022/01/03 06:28:35;;;;;;;11.13;7.27;;;;;;;6.42;100.00;94735.25;4972332;28;20567;-63
2022/01/03 06:31:00;;;;;;;10.60;6.67;;;;;;;6.33;100.00;94738.41;4971082;28;20214;-58
2022/01/03 06:33:26;;;;;;;9.63;7.27;;;;;;;6.40;100.00;94747.16;4972148;28;20672;-62
2022/01/03 06:35:52;;;;;;;10.63;7.00;;;;;;;6.32;100.00;94733.47;4972189;28;20209;-59
2022/01/03 06:38:17;;;;;;;10.97;7.17;;;;;;;6.24;100.00;94731.41;4972363;28;20286;-59
2022/01/03 06:40:42;;;;;;;11.97;7.30;;;;;;;6.35;100.00;94733.25;4971906;28;20586;-59
2022/01/03 06:43:08;;;;;;;11.93;7.03;;;;;;;6.46;100.00;94738.38;4972165;28;20175;-62
2022/01/03 06:45:33;;;;;;;9.67;6.87;;;;;;;6.50;100.00;94745.66;4972091;28;20202;-62
2022/01/03 06:47:59;;;;;;;10.87;7.47;;;;;;;6.36;100.00;94740.69;4972138;28;20669;-64
2022/01/03 06:50:25;;;;;;;12.87;7.87;;;;;;;6.31;100.00;94737.69;4972027;28;20183;-64
2022/01/03 06:52:50;;;;;;;13.83;8.53;;;;;;;6.49;100.00;94756.66;4972111;28;20655;-63
2022/01/03 06:55:16;;;;;;;11.83;7.80;;;;;;;6.39;100.00;94745.56;4971930;28;20176;-62
2022/01/03 06:57:41;;;;;;;12.97;8.10;;;;;;;6.32;100.00;94724.16;4970812;28;20620;-63
2022/01/03 07:00:07;;;;;;;12.87;8.13;;;;;;;6.32;100.00;94720.84;4970877;28;20237;-59
2022/01/03 07:02:33;;;;;;;12.03;7.73;;;;;;;6.52;100.00;94721.13;4972091;28;20563;-62
2022/01/03 07:04:58;;;;;;;12.77;8.70;;;;;;;6.39;100.00;94722.03;4970567;28;20195;-62
2022/01/03 07:07:24;;;;;;;15.37;9.43;;;;;;;6.45;100.00;94722.44;4972094;28;20273;-62
2022/01/03 07:09:49;;;;;;;11.97;8.37;;;;;;;6.68;100.00;94733.50;4971827;28;20184;-62
2022/01/03 07:12:16;;;;;;;12.87;7.70;;;;;;;7.16;100.00;94720.00;4972212;28;20199;-59
2022/01/03 07:19:55;;;;;;;14.27;9.33;;;;;;;8.81;100.00;94715.31;4971917;28;20183;-64
2022/01/03 07:22:21;;;;;;;14.27;9.50;;;;;;;8.56;100.00;94769.59;4969845;28;20713;-64
2022/01/03 07:24:47;;;;;;;12.20;8.47;;;;;;;8.23;100.00;94757.69;4971349;28;20188;-64
2022/01/03 07:27:17;;;;;;;15.13;9.13;;;;;;;7.92;100.00;94760.06;4969080;28;20204;-63
2022/01/03 07:29:43;;;;;;;12.07;8.80;;;;;;;7.67;100.00;94725.59;4970198;28;20184;-65
2022/01/03 07:32:09;;;;;;;10.53;8.50;;;;;;;7.59;100.00;94730.41;4969856;28;20199;-64
2022/01/03 07:34:35;;;;;;;12.17;8.37;;;;;;;7.64;100.00;94713.97;4971208;28;20219;-64
2022/01/03 07:37:01;;;;;;;10.17;7.40;;;;;;;7.50;100.00;94718.38;4971459;28;20286;-62
2022/01/03 07:39:30;;;;;;;13.03;8.63;;;;;;;7.46;100.00;94700.13;4971135;28;20191;-64
2022/01/03 07:41:56;;;;;;;12.47;8.40;;;;;;;7.46;100.00;94689.19;4969571;28;20220;-63
2022/01/03 07:44:21;;;;;;;13.63;8.70;;;;;;;7.21;100.00;94695.19;4971556;28;20195;-66
2022/01/03 07:46:47;;;;;;;12.90;8.13;;;;;;;7.48;100.00;94700.81;4971048;28;20212;-64
2022/01/03 07:49:13;;;;;;;12.17;8.30;;;;;;;7.71;100.00;94719.38;4971067;28;20269;-65
2022/01/03 07:51:39;;;;;;;11.03;8.03;;;;;;;7.96;100.00;94723.47;4971221;28;20224;-67
2022/01/03 07:54:04;;;;;;;12.63;8.97;;;;;;;8.11;100.00;94728.22;4971413;28;20250;-65
2022/01/03 07:56:32;;;;;;;16.60;8.50;;;;;;;8.29;100.00;94726.88;4969938;28;20255;-63
2022/01/03 07:58:57;;;;;;;10.87;8.30;;;;;;;8.43;100.00;94735.97;4970720;28;20219;-64
2022/01/03 08:01:23;;;;;;;14.00;7.90;;;;;;;8.79;100.00;94760.25;4970949;28;20208;-66
2022/01/03 08:03:48;;;;;;;16.43;9.23;;;;;;;8.91;100.00;94744.09;4953467;28;20195;-66
2022/01/03 08:06:14;;;;;;;13.23;8.57;;;;;;;8.78;100.00;94731.59;4970908;28;20291;-66
2022/01/03 08:08:39;;;;;;;13.63;9.13;;;;;;;8.89;100.00;94744.22;4969438;28;20189;-63
2022/01/03 08:11:05;;;;;;;14.90;8.13;;;;;;;9.19;100.00;94725.84;4970908;28;20200;-61
2022/01/03 08:13:31;;;;;;;12.87;8.10;;;;;;;9.34;100.00;94752.53;4970676;28;20760;-61
2022/01/03 08:15:56;;;;;;;14.63;9.57;;;;;;;9.63;100.00;94790.84;4970835;28;20705;-65
2022/01/03 08:18:22;;;;;;;14.57;9.90;;;;;;;9.58;100.00;94783.59;4971019;28;20184;-65
2022/01/03 08:20:47;;;;;;;11.77;8.63;;;;;;;10.02;100.00;94785.94;4969035;28;20681;-63
2022/01/03 08:23:13;;;;;;;13.67;8.73;;;;;;;10.30;100.00;94779.50;4969139;28;20199;-65
2022/01/03 08:25:39;;;;;;;10.40;8.97;;;;;;;10.48;100.00;94784.78;4970502;28;20317;-64
2022/01/03 08:28:08;;;;;;;16.60;9.40;;;;;;;10.74;100.00;94794.44;4969743;28;20622;-67
2022/01/03 08:30:35;;;;;;;11.67;9.10;;;;;;;10.97;100.00;94811.09;4968743;28;20204;-65
2022/01/03 08:33:01;;;;;;;15.00;9.60;;;;;;;11.17;100.00;94804.34;4969414;28;20264;-64
2022/01/03 08:35:27;;;;;;;15.70;10.27;;;;;;;11.43;100.00;94813.09;4970183;28;20187;-63
2022/01/03 08:37:55;;;;;;;20.30;13.83;;;;;;;11.47;100.00;94798.38;4968623;28;20184;-63
2022/01/03 08:40:21;;;;;;;24.83;14.70;;;;;;;11.55;99.62;94827.31;4968868;28;20211;-63
2022/01/03 08:42:47;;;;;;;22.83;12.60;;;;;;;11.53;99.21;94811.38;4970468;28;20685;-64
2022/01/03 08:45:13;;;;;;;18.10;10.23;;;;;;;11.74;99.77;94806.22;4968862;28;20200;-64
2022/01/03 08:47:39;;;;;;;13.43;10.20;;;;;;;11.76;98.84;94787.31;4970406;28;20586;-64
2022/01/03 08:50:06;;;;;;;15.33;10.90;;;;;;;11.98;97.23;94808.38;4968831;28;20752;-64
2022/01/03 08:52:31;;;;;;;12.47;9.07;;;;;;;11.65;95.08;94828.19;4970046;28;20270;-64
2022/01/03 08:54:57;;;;;;;12.60;9.83;;;;;;;11.56;97.26;94770.38;4969901;28;20184;-65
2022/01/03 08:57:24;;;;;;;12.60;9.00;;;;;;;11.59;95.83;94780.31;4968877;28;20200;-64
2022/01/03 08:59:50;;;;;;;15.07;9.60;;;;;;;11.64;96.22;94773.06;4969762;28;20181;-64
2022/01/03 09:02:17;;;;;;;12.03;9.00;;;;;;;11.59;96.53;94754.88;4968496;28;20686;-64
2022/01/03 09:04:44;;;;;;;16.03;9.50;;;;;;;11.57;95.84;94748.28;4968459;28;20207;-65
2022/01/03 09:07:10;;;;;;;13.97;9.63;;;;;;;11.57;97.66;94718.53;4968608;28;20204;-64
2022/01/03 09:09:35;;;;;;;14.87;9.30;;;;;;;11.86;99.55;94703.25;4968443;28;20667;-64
2022/01/03 09:12:03;;;;;;;14.03;10.87;;;;;;;12.00;96.68;94753.00;4970037;28;20298;-64
2022/01/03 09:14:29;;;;;;;14.37;10.03;;;;;;;12.15;97.09;94746.53;4968368;28;20180;-65
2022/01/03 09:16:54;;;;;;;17.30;10.50;;;;;;;12.24;98.73;94720.22;4952273;28;20762;-64
2022/01/03 09:19:20;;;;;;;21.77;11.10;;;;;;;12.31;95.27;94790.91;4969597;28;20180;-65
2022/01/03 09:21:46;;;;;;;15.97;11.33;;;;;;;12.46;95.11;94778.53;4969501;28;20216;-66
2022/01/03 09:24:42;;;;;;;17.90;11.50;;;;;;;12.39;94.87;94770.63;4969625;28;20177;-63
2022/01/03 09:29:54;;;;;;;20.17;13.80;;;;;;;12.68;95.54;94734.03;4969505;28;20175;-65
2022/01/03 09:32:20;;;;;;;22.93;13.40;;;;;;;12.88;94.50;94759.31;4970063;28;20196;-61
2022/01/03 09:34:45;;;;;;;19.87;11.50;;;;;;;13.16;92.98;94781.38;4969545;28;20216;-64
2022/01/03 09:37:12;;;;;;;25.50;12.40;;;;;;;13.28;93.48;94747.06;4963251;23;20225;-64
2022/01/03 09:39:38;;;;;;;18.00;13.03;;;;;;;13.47;92.95;94754.56;4948783;29;20188;-65
2022/01/03 09:42:07;;;;;;;21.30;14.37;;;;;;;13.43;92.03;94762.69;4948787;28;20255;-65
2022/01/03 09:44:34;;;;;;;19.30;14.33;;;;;;;13.22;92.25;94742.53;4948847;29;20208;-64
2022/01/03 09:47:03;;;;;;;29.03;14.93;;;;;;;13.27;92.43;94729.34;4949025;28;20216;-64
2022/01/03 09:49:35;;;;;;;18.43;13.13;;;;;;;13.27;90.95;94750.53;4950327;28;20612;-64
2022/01/03 09:52:06;;;;;;;20.20;13.57;;;;;;;13.30;91.21;94742.59;4952464;28;20213;-67
2022/01/03 09:54:32;;;;;;;21.90;14.07;;;;;;;13.18;91.59;94728.44;4953455;28;20172;-63
2022/01/03 09:57:04;;;;;;;24.77;15.13;;;;;;;13.14;90.98;94732.22;4953866;28;20220;-67
2022/01/03 09:59:30;;;;;;;20.30;13.57;;;;;;;13.44;89.04;94777.06;4953687;28;20544;-63
2022/01/03 10:01:58;;;;;;;23.60;14.07;;;;;;;13.16;89.32;94748.19;4951956;28;20694;-65
2022/01/03 10:04:24;;;;;;;18.87;13.97;;;;;;;13.14;90.52;94729.69;4952025;29;20181;-67
2022/01/03 10:06:50;;;;;;;25.27;16.53;;;;;;;13.19;91.55;94693.50;4953582;28;20218;-65
2022/01/03 10:09:18;;;;;;;23.87;14.70;;;;;;;12.88;90.64;94710.03;4953277;28;20615;-66
2022/01/03 10:11:44;;;;;;;22.27;14.53;;;;;;;12.54;91.79;94679.97;4953558;28;20312;-66
2022/01/03 10:14:11;;;;;;;18.60;13.90;;;;;;;12.37;92.44;94667.19;4953298;28;20647;-63
2022/01/03 10:16:37;;;;;;;19.93;13.97;;;;;;;12.42;94.04;94627.56;4952081;28;20767;-66
2022/01/03 10:19:03;;;;;;;18.27;13.60;;;;;;;12.40;92.32;94657.50;4952908;28;20186;-65
2022/01/03 10:21:37;;;;;;;27.37;13.53;;;;;;;12.33;93.97;94620.78;4952781;28;20674;-65
2022/01/03 10:24:03;;;;;;;21.03;13.87;;;;;;;12.46;92.53;94656.94;4953180;28;20200;-65
2022/01/03 10:26:28;;;;;;;19.90;14.07;;;;;;;12.41;94.32;94614.97;4953100;28;20631;-66
2022/01/03 10:29:17;;;;;;;21.47;15.20;;;;;;;12.33;96.52;94571.53;4953177;28;20188;-64
2022/01/03 10:31:50;;;;;;;19.90;14.47;;;;;;;12.68;95.80;94604.78;4953290;28;20205;-64
2022/01/03 10:34:18;;;;;;;22.63;14.60;;;;;;;12.57;94.82;94602.41;4952882;28;20178;-65
2022/01/03 10:36:47;;;;;;;23.87;15.17;;;;;;;12.86;93.74;94617.53;4952900;28;20220;-61
2022/01/03 10:39:23;;;;;;;22.37;14.57;;;;;;;12.96;91.41;94661.66;4952733;28;20219;-61
2022/01/03 10:41:51;;;;;;;21.97;13.40;;;;;;;12.70;92.22;94627.56;4952614;28;20307;-63
2022/01/03 10:44:36;;;;;;;22.20;14.20;;;;;;;12.77;91.58;94629.41;4952766;28;20185;-65
2022/01/03 10:47:04;;;;;;;23.50;14.50;;;;;;;12.45;93.10;94608.66;4953092;28;20623;-61
2022/01/03 10:49:29;;;;;;;22.30;14.17;;;;;;;12.52;93.81;94586.75;4952902;28;20181;-64
2022/01/03 10:52:15;;;;;;;20.80;14.30;;;;;;;12.60;92.99;94595.25;4952902;28;20220;-64
2022/01/03 10:54:42;;;;;;;19.57;14.00;;;;;;;12.65;94.21;94564.22;4952904;28;20187;-66
2022/01/03 10:57:07;;;;;;;21.00;14.17;;;;;;;12.81;92.92;94591.63;4952967;28;20220;-66
2022/01/03 10:59:35;;;;;;;23.07;14.17;;;;;;;13.06;92.63;94584.13;4952559;28;20181;-64
2022/01/03 11:02:03;;;;;;;21.47;13.17;;;;;;;12.86;90.13;94618.34;4952410;28;20355;-66
2022/01/03 11:04:31;;;;;;;21.27;13.17;;;;;;;12.77;89.88;94624.28;4952754;28;20213;-62
2022/01/03 11:10:43;;;;;;;20.77;12.70;;;;;;;12.80;90.80;94603.63;4952955;28;20664;-64
2022/01/03 11:13:15;;;;;;;16.93;10.57;;;;;;;12.59;88.81;94611.53;4952262;29;20231;-63
2022/01/03 11:16:05;;;;;;;19.50;10.93;;;;;;;12.48;90.72;94583.66;4952158;28;21022;-64
2022/01/03 11:18:34;;;;;;;18.40;9.93;;;;;;;12.47;91.86;94563.41;4952090;28;20178;-63
2022/01/03 11:21:23;;;;;;;14.23;10.93;;;;;;;12.77;90.98;94578.38;4950737;28;20236;-64
2022/01/03 11:23:58;;;;;;;13.80;10.30;;;;;;;12.87;87.77;94624.22;4950837;29;20620;-63
2022/01/03 11:26:26;;;;;;;13.03;10.00;;;;;;;13.20;87.38;94624.44;4952257;28;20262;-64
2022/01/03 11:28:53;;;;;;;15.50;8.90;;;;;;;13.48;85.67;94643.81;4952098;28;20170;-64
2022/01/03 11:31:21;;;;;;;15.63;8.87;;;;;;;13.69;86.36;94627.38;4952182;28;20279;-63
2022/01/03 11:33:48;;;;;;;13.57;9.73;;;;;;;13.82;85.03;94638.00;4951732;28;20280;-63
2022/01/03 11:36:17;;;;;;;13.10;9.40;;;;;;;13.79;84.02;94638.31;4950694;28;20216;-64
2022/01/03 11:38:45;;;;;;;14.57;9.53;;;;;;;13.68;85.08;94605.31;4950400;28;20596;-64
2022/01/03 11:41:13;;;;;;;10.00;8.23;;;;;;;13.73;84.64;94618.47;4951882;28;20219;-64